createdAt,value
2022-08-21T00:00:07.906Z,98351.28
2022-08-21T00:02:34.372Z,98355.97
2022-08-21T00:05:00.850Z,98341.41
2022-08-21T00:07:27.455Z,98345.66
2022-08-21T00:09:53.818Z,98345.19
2022-08-21T00:12:20.343Z,98346.47
2022-08-21T00:14:46.774Z,98333.78
2022-08-21T00:17:13.136Z,98329.41
2022-08-21T00:19:39.497Z,98328.19
2022-08-21T00:22:05.874Z,98328.97
2022-08-21T00:24:32.263Z,98329.84
2022-08-21T00:26:59.498Z,98331.00
2022-08-21T00:29:25.902Z,98322.66
2022-08-21T00:31:52.343Z,98327.50
2022-08-21T00:34:18.711Z,98324.38
2022-08-21T00:36:45.074Z,98333.28
2022-08-21T00:39:11.433Z,98321.22
2022-08-21T00:41:39.015Z,98324.16
2022-08-21T00:44:08.943Z,98323.66
2022-08-21T00:46:35.343Z,98328.13
2022-08-21T00:49:01.729Z,98329.38
2022-08-21T00:51:38.444Z,98329.78
2022-08-21T00:54:05.080Z,98342.88
2022-08-21T00:56:31.456Z,98332.78
2022-08-21T00:58:57.814Z,98338.81
2022-08-21T01:01:24.236Z,98341.69
2022-08-21T01:03:50.633Z,98338.44
2022-08-21T01:06:17.635Z,98339.94
2022-08-21T01:08:47.071Z,98340.81
2022-08-21T01:11:13.912Z,98335.25
2022-08-21T01:13:46.709Z,98335.28
2022-08-21T01:16:13.363Z,98332.88
2022-08-21T01:18:39.754Z,98336.88
2022-08-21T01:21:07.261Z,98339.19
2022-08-21T01:23:34.179Z,98336.72
2022-08-21T01:28:49.688Z,98332.41
2022-08-21T01:31:16.346Z,98326.75
2022-08-21T01:33:43.323Z,98323.53
2022-08-21T01:36:09.692Z,98321.53
2022-08-21T01:38:36.085Z,98330.25
2022-08-21T01:41:02.480Z,98331.88
2022-08-21T01:43:39.044Z,98327.75
2022-08-21T01:46:06.298Z,98333.25
2022-08-21T01:48:32.679Z,98319.72
2022-08-21T01:50:59.048Z,98322.53
2022-08-21T01:53:33.381Z,98319.72
2022-08-21T01:56:00.127Z,98319.59
2022-08-21T01:58:26.478Z,98312.34
2022-08-21T02:00:52.882Z,98313.97
2022-08-21T02:03:25.841Z,98307.09
2022-08-21T02:05:57.651Z,98310.31
2022-08-21T02:08:24.159Z,98305.97
2022-08-21T02:10:50.979Z,98305.25
2022-08-21T02:13:17.586Z,98308.31
2022-08-21T02:15:44.199Z,98304.34
2022-08-21T02:18:10.542Z,98299.84
2022-08-21T02:20:37.949Z,98303.00
2022-08-21T02:23:05.034Z,98299.88
2022-08-21T02:25:31.460Z,98295.75
2022-08-21T02:27:58.051Z,98295.75
2022-08-21T02:30:25.377Z,98287.31
2022-08-21T02:32:51.769Z,98291.78
2022-08-21T02:35:19.342Z,98297.25
2022-08-21T02:37:46.429Z,98291.50
2022-08-21T02:40:12.845Z,98302.25
2022-08-21T02:42:40.869Z,98295.66
2022-08-21T02:45:07.581Z,98295.41
2022-08-21T02:47:33.925Z,98300.06
2022-08-21T02:50:00.300Z,98294.53
2022-08-21T02:52:26.650Z,98294.91
2022-08-21T02:54:53.315Z,98292.50
2022-08-21T02:57:19.668Z,98286.78
2022-08-21T02:59:46.075Z,98291.25
2022-08-21T03:02:12.466Z,98281.78
2022-08-21T03:04:40.611Z,98280.69
2022-08-21T03:07:11.048Z,98279.63
2022-08-21T03:09:38.182Z,98281.31
2022-08-21T03:12:11.957Z,98281.06
2022-08-21T03:14:39.456Z,98284.75
2022-08-21T03:17:05.891Z,98288.44
2022-08-21T03:19:32.264Z,98279.22
2022-08-21T03:21:58.619Z,98285.34
2022-08-21T03:24:25.360Z,98285.03
2022-08-21T03:26:51.754Z,98296.09
2022-08-21T03:29:18.126Z,98286.91
2022-08-21T03:31:44.478Z,98284.38
2022-08-21T03:34:11.102Z,98286.38
2022-08-21T03:36:37.454Z,98284.41
2022-08-21T03:39:03.830Z,98284.81
2022-08-21T03:41:30.187Z,98289.38
2022-08-21T03:43:56.581Z,98288.78
2022-08-21T03:46:23.210Z,98292.53
2022-08-21T03:48:49.760Z,98288.09
2022-08-21T03:51:16.475Z,98287.50
2022-08-21T03:53:42.833Z,98293.06
2022-08-21T03:56:09.193Z,98289.41
2022-08-21T03:58:35.538Z,98293.22
2022-08-21T04:01:02.021Z,98290.94
2022-08-21T04:03:28.367Z,98293.16
2022-08-21T04:05:55.054Z,98296.63
2022-08-21T04:08:21.451Z,98301.06
2022-08-21T04:10:48.561Z,98298.53
2022-08-21T04:13:15.805Z,98304.88
2022-08-21T04:15:42.150Z,98296.41
2022-08-21T04:18:09.406Z,98310.31
2022-08-21T04:20:35.764Z,98301.56
2022-08-21T04:23:02.605Z,98304.28
2022-08-21T04:25:29.493Z,98308.25
2022-08-21T04:27:55.847Z,98312.34
2022-08-21T04:30:28.032Z,98311.06
2022-08-21T04:32:55.247Z,98320.03
2022-08-21T04:35:22.556Z,98305.97
2022-08-21T04:37:49.151Z,98321.47
2022-08-21T04:40:16.181Z,98316.22
2022-08-21T04:42:45.295Z,98322.63
2022-08-21T04:45:25.611Z,98322.25
2022-08-21T04:47:53.497Z,98318.50
2022-08-21T04:50:20.410Z,98320.63
2022-08-21T04:52:46.763Z,98317.94
2022-08-21T04:55:13.409Z,98325.97
2022-08-21T04:57:48.508Z,98326.41
2022-08-21T05:00:15.799Z,98334.50
2022-08-21T05:02:42.231Z,98329.13
2022-08-21T05:05:08.599Z,98328.78
2022-08-21T05:07:41.935Z,98335.53
2022-08-21T05:10:10.935Z,98336.03
2022-08-21T05:12:39.050Z,98333.72
2022-08-21T05:15:05.489Z,98328.56
2022-08-21T05:17:31.843Z,98340.16
2022-08-21T05:19:58.227Z,98340.94
2022-08-21T05:22:25.268Z,98348.97
2022-08-21T05:24:51.830Z,98346.63
2022-08-21T05:27:18.188Z,98355.88
2022-08-21T05:29:44.906Z,98350.75
2022-08-21T05:32:11.632Z,98352.78
2022-08-21T05:34:38.010Z,98351.63
2022-08-21T05:37:07.612Z,98352.84
2022-08-21T05:40:04.999Z,98350.81
2022-08-21T05:42:20.518Z,98354.41
2022-08-21T05:44:47.167Z,98352.13
2022-08-21T05:47:15.785Z,98351.38
2022-08-21T05:49:42.158Z,98355.75
2022-08-21T05:52:08.525Z,98343.72
2022-08-21T05:54:35.626Z,98354.09
2022-08-21T05:57:01.974Z,98356.84
2022-08-21T05:59:28.733Z,98353.56
2022-08-21T06:01:55.184Z,98355.91
2022-08-21T06:04:21.606Z,98363.09
2022-08-21T06:06:48.598Z,98357.50
2022-08-21T06:09:14.981Z,98363.91
2022-08-21T06:11:41.396Z,98364.31
2022-08-21T06:14:08.641Z,98358.09
2022-08-21T06:16:35.006Z,98365.09
2022-08-21T06:19:03.115Z,98366.44
2022-08-21T06:21:29.892Z,98364.50
2022-08-21T06:23:56.618Z,98365.34
2022-08-21T06:26:23.190Z,98366.19
2022-08-21T06:28:49.534Z,98362.97
2022-08-21T06:31:19.347Z,98362.16
2022-08-21T06:33:45.890Z,98368.19
2022-08-21T06:36:12.371Z,98363.78
2022-08-21T06:38:38.760Z,98368.59
2022-08-21T06:41:05.691Z,98369.00
2022-08-21T06:43:39.354Z,98360.56
2022-08-21T06:46:06.341Z,98365.78
2022-08-21T06:48:34.259Z,98358.94
2022-08-21T06:51:01.593Z,98364.13
2022-08-21T06:53:28.245Z,98366.97
2022-08-21T06:55:54.654Z,98364.16
2022-08-21T06:58:21.030Z,98370.19
2022-08-21T07:00:48.114Z,98368.53
2022-08-21T07:03:20.602Z,98366.53
2022-08-21T07:05:47.055Z,98364.47
2022-08-21T07:08:13.425Z,98366.13
2022-08-21T07:10:39.823Z,98358.84
2022-08-21T07:13:07.122Z,98360.28
2022-08-21T07:15:33.900Z,98357.84
2022-08-21T07:18:00.607Z,98357.69
2022-08-21T07:20:30.392Z,98362.78
2022-08-21T07:22:57.903Z,98356.75
2022-08-21T07:25:24.517Z,98363.22
2022-08-21T07:27:50.954Z,98356.53
2022-08-21T07:30:17.375Z,98354.63
2022-08-21T07:32:43.765Z,98353.72
2022-08-21T07:35:10.159Z,98358.16
2022-08-21T07:37:36.517Z,98351.25
2022-08-21T07:40:02.998Z,98354.00
2022-08-21T07:42:29.391Z,98351.91
2022-08-21T07:44:56.538Z,98348.78
2022-08-21T07:47:40.498Z,98360.47
2022-08-21T07:50:09.181Z,98356.28
2022-08-21T07:52:35.613Z,98346.31
2022-08-21T07:55:06.097Z,98358.09
2022-08-21T07:57:33.275Z,98362.47
2022-08-21T07:59:59.792Z,98364.06
2022-08-21T08:02:26.647Z,98341.94
2022-08-21T08:04:53.404Z,98354.75
2022-08-21T08:07:19.831Z,98350.41
2022-08-21T08:09:46.671Z,98357.25
2022-08-21T08:12:13.084Z,98357.25
2022-08-21T08:14:39.458Z,98349.06
2022-08-21T08:17:05.883Z,98350.84
2022-08-21T08:19:32.533Z,98356.53
2022-08-21T08:21:59.039Z,98353.97
2022-08-21T08:24:25.441Z,98351.63
2022-08-21T08:26:53.993Z,98352.41
2022-08-21T08:29:21.398Z,98356.03
2022-08-21T08:31:47.789Z,98349.16
2022-08-21T08:34:25.173Z,98347.91
2022-08-21T08:36:52.236Z,98340.78
2022-08-21T08:39:26.953Z,98346.28
2022-08-21T08:41:58.764Z,98341.16
2022-08-21T08:44:25.275Z,98343.22
2022-08-21T08:46:57.536Z,98337.69
2022-08-21T08:49:25.206Z,98338.19
2022-08-21T08:52:01.348Z,98340.59
2022-08-21T08:54:35.812Z,98345.03
2022-08-21T08:57:02.586Z,98342.34
2022-08-21T08:59:33.559Z,98332.50
2022-08-21T09:02:00.167Z,98339.94
2022-08-21T09:04:29.591Z,98335.31
2022-08-21T09:07:14.870Z,98337.72
2022-08-21T09:09:41.282Z,98327.53
2022-08-21T09:12:19.829Z,98325.88
2022-08-21T09:14:48.447Z,98328.06
2022-08-21T09:17:25.882Z,98325.13
2022-08-21T09:19:58.531Z,98327.59
2022-08-21T09:22:25.541Z,98322.00
2022-08-21T09:24:58.721Z,98321.94
2022-08-21T09:27:26.521Z,98335.41
2022-08-21T09:29:53.778Z,98323.75
2022-08-21T09:32:37.010Z,98322.63
2022-08-21T09:35:14.931Z,98326.09
2022-08-21T09:37:58.935Z,98326.13
2022-08-21T09:40:32.727Z,98323.69
2022-08-21T09:43:19.471Z,98326.44
2022-08-21T09:45:46.177Z,98332.81
2022-08-21T09:48:15.514Z,98320.75
2022-08-21T09:50:42.740Z,98332.47
2022-08-21T09:53:16.636Z,98333.38
2022-08-21T09:56:12.070Z,98324.66
2022-08-21T09:58:39.111Z,98327.69
2022-08-21T10:01:06.506Z,98330.09
2022-08-21T10:03:32.936Z,98324.38
2022-08-21T10:06:00.278Z,98329.00
2022-08-21T10:08:27.764Z,98324.69
2022-08-21T10:11:08.362Z,98312.88
2022-08-21T10:13:34.718Z,98318.00
2022-08-21T10:16:11.376Z,98313.06
2022-08-21T10:18:42.324Z,98315.00
2022-08-21T10:21:25.051Z,98315.78
2022-08-21T10:23:51.433Z,98307.84
2022-08-21T10:26:21.678Z,98313.88
2022-08-21T10:28:48.080Z,98315.28
2022-08-21T10:31:33.170Z,98311.03
2022-08-21T10:34:07.674Z,98300.22
2022-08-21T10:36:46.245Z,98296.91
2022-08-21T10:39:35.025Z,98297.13
2022-08-21T10:42:02.397Z,98305.88
2022-08-21T10:44:36.032Z,98295.97
2022-08-21T10:47:11.622Z,98298.72
2022-08-21T10:49:37.977Z,98301.56
2022-08-21T10:52:12.518Z,98302.44
2022-08-21T10:54:58.740Z,98301.44
2022-08-21T10:57:32.095Z,98296.06
2022-08-21T11:00:05.113Z,98305.50
2022-08-21T11:02:33.178Z,98298.59
2022-08-21T11:05:04.010Z,98290.31
2022-08-21T11:07:34.733Z,98295.66
2022-08-21T11:10:05.067Z,98303.59
2022-08-21T11:12:45.271Z,98299.28
2022-08-21T11:15:28.934Z,98306.84
2022-08-21T11:18:11.734Z,98303.50
2022-08-21T11:20:44.207Z,98302.69
2022-08-21T11:23:25.221Z,98302.50
2022-08-21T11:25:56.384Z,98302.56
2022-08-21T11:28:24.565Z,98309.94
2022-08-21T11:30:57.128Z,98307.44
2022-08-21T11:33:23.455Z,98299.56
2022-08-21T11:35:55.224Z,98300.91
2022-08-21T11:38:41.202Z,98291.66
2022-08-21T11:41:13.732Z,98294.88
2022-08-21T11:43:47.277Z,98299.97
2022-08-21T11:46:35.235Z,98288.75
2022-08-21T11:49:10.882Z,98289.63
2022-08-21T11:51:43.680Z,98289.66
2022-08-21T11:54:23.155Z,98306.00
2022-08-21T11:56:51.726Z,98302.97
2022-08-21T11:59:21.661Z,98305.31
2022-08-21T12:01:48.131Z,98294.84
2022-08-21T12:04:19.592Z,98293.06
2022-08-21T12:06:46.022Z,98291.56
2022-08-21T12:09:29.660Z,98288.72
2022-08-21T12:12:12.444Z,98288.63
2022-08-21T12:14:38.916Z,98293.84
2022-08-21T12:17:06.019Z,98302.47
2022-08-21T12:19:36.064Z,98292.31
2022-08-21T12:22:02.528Z,98289.75
2022-08-21T12:24:28.880Z,98292.00
2022-08-21T12:26:56.396Z,98288.78
2022-08-21T12:29:25.036Z,98294.66
2022-08-21T12:31:51.409Z,98287.03
2022-08-21T12:34:17.831Z,98286.59
2022-08-21T12:37:04.573Z,98296.75
2022-08-21T12:39:32.068Z,98292.41
2022-08-21T12:42:06.859Z,98288.03
2022-08-21T12:44:35.656Z,98280.34
2022-08-21T12:47:06.462Z,98287.09
2022-08-21T12:49:34.423Z,98274.91
2022-08-21T12:52:27.164Z,98280.31
2022-08-21T12:54:53.612Z,98279.19
2022-08-21T12:57:21.360Z,98273.13
2022-08-21T12:59:55.230Z,98288.31
2022-08-21T13:02:22.980Z,98277.38
2022-08-21T13:04:49.485Z,98273.97
2022-08-21T13:07:26.676Z,98272.03
2022-08-21T13:09:54.638Z,98272.69
2022-08-21T13:12:27.720Z,98266.69
2022-08-21T13:14:59.490Z,98267.75
2022-08-21T13:17:31.023Z,98269.16
2022-08-21T13:19:58.598Z,98270.25
2022-08-21T13:22:33.200Z,98274.06
2022-08-21T13:25:01.659Z,98265.41
2022-08-21T13:27:33.378Z,98260.06
2022-08-21T13:30:09.069Z,98258.22
2022-08-21T13:32:35.864Z,98256.06
2022-08-21T13:35:08.751Z,98270.06
2022-08-21T13:37:35.891Z,98258.16
2022-08-21T13:40:02.479Z,98260.09
2022-08-21T13:42:28.949Z,98255.63
2022-08-21T13:44:55.365Z,98256.81
2022-08-21T13:47:21.788Z,98254.88
2022-08-21T13:49:48.538Z,98245.78
2022-08-21T13:52:22.101Z,98254.13
2022-08-21T13:54:58.784Z,98255.84
2022-08-21T13:57:26.629Z,98250.00
2022-08-21T13:59:53.119Z,98254.78
2022-08-21T14:02:21.129Z,98256.50
2022-08-21T14:04:53.387Z,98259.66
2022-08-21T14:07:21.052Z,98264.44
2022-08-21T14:09:47.693Z,98250.09
2022-08-21T14:12:18.051Z,98260.75
2022-08-21T14:14:50.094Z,98253.19
2022-08-21T14:17:29.182Z,98254.13
2022-08-21T14:20:00.244Z,98249.47
2022-08-21T14:22:50.191Z,98251.09
2022-08-21T14:25:19.170Z,98253.81
2022-08-21T14:27:50.105Z,98249.72
2022-08-21T14:30:19.617Z,98247.41
2022-08-21T14:32:46.143Z,98243.59
2022-08-21T14:35:13.318Z,98249.97
2022-08-21T14:37:42.571Z,98245.31
2022-08-21T14:40:09.795Z,98249.31
2022-08-21T14:42:36.678Z,98245.06
2022-08-21T14:45:17.011Z,98243.84
2022-08-21T14:47:44.740Z,98243.47
2022-08-21T14:50:11.645Z,98243.47
2022-08-21T14:52:38.267Z,98242.47
2022-08-21T14:55:05.400Z,98239.50
2022-08-21T14:57:33.951Z,98244.38
2022-08-21T15:00:02.078Z,98237.59
2022-08-21T15:02:28.779Z,98237.34
2022-08-21T15:04:55.188Z,98238.81
2022-08-21T15:07:21.634Z,98239.19
2022-08-21T15:09:48.131Z,98242.69
2022-08-21T15:12:14.543Z,98247.41
2022-08-21T15:14:43.943Z,98241.59
2022-08-21T15:17:10.544Z,98248.97
2022-08-21T15:19:37.065Z,98244.63
2022-08-21T15:22:03.677Z,98239.59
2022-08-21T15:24:30.257Z,98242.22
2022-08-21T15:26:57.017Z,98244.75
2022-08-21T15:29:23.517Z,98246.44
2022-08-21T15:32:00.661Z,98243.81
2022-08-21T15:34:28.200Z,98240.31
2022-08-21T15:36:56.269Z,98236.91
2022-08-21T15:39:24.693Z,98239.78
2022-08-21T15:41:51.534Z,98233.53
2022-08-21T15:44:17.940Z,98236.19
2022-08-21T15:46:45.785Z,98236.44
2022-08-21T15:49:12.262Z,98238.19
2022-08-21T15:51:43.496Z,98241.75
2022-08-21T15:54:11.150Z,98246.09
2022-08-21T15:56:38.155Z,98244.44
2022-08-21T15:59:08.917Z,98244.44
2022-08-21T16:01:44.308Z,98244.78
2022-08-21T16:04:11.678Z,98234.31
2022-08-21T16:06:54.102Z,98233.94
2022-08-21T16:09:23.303Z,98238.69
2022-08-21T16:11:49.756Z,98235.75
2022-08-21T16:14:16.237Z,98237.66
2022-08-21T16:16:42.715Z,98235.31
2022-08-21T16:19:09.277Z,98235.19
2022-08-21T16:21:35.686Z,98237.50
2022-08-21T16:24:02.124Z,98241.78
2022-08-21T16:26:28.848Z,98234.66
2022-08-21T16:28:56.136Z,98239.75
2022-08-21T16:31:24.417Z,98238.00
2022-08-21T16:33:51.530Z,98240.28
2022-08-21T16:36:22.443Z,98231.00
2022-08-21T16:38:48.939Z,98225.72
2022-08-21T16:41:17.323Z,98232.34
2022-08-21T16:43:43.729Z,98235.91
2022-08-21T16:46:11.341Z,98229.22
2022-08-21T16:48:38.164Z,98223.25
2022-08-21T16:51:05.025Z,98222.81
2022-08-21T16:53:31.428Z,98223.09
2022-08-21T16:55:57.835Z,98220.63
2022-08-21T16:58:25.750Z,98228.25
2022-08-21T17:00:52.228Z,98221.06
2022-08-21T17:03:21.291Z,98217.22
2022-08-21T17:05:47.965Z,98216.91
2022-08-21T17:08:14.435Z,98219.47
2022-08-21T17:10:42.925Z,98227.44
2022-08-21T17:13:09.891Z,98220.09
2022-08-21T17:15:36.940Z,98218.34
2022-08-21T17:18:04.148Z,98222.84
2022-08-21T17:20:31.399Z,98221.22
2022-08-21T17:22:57.923Z,98226.53
2022-08-21T17:25:24.661Z,98222.56
2022-08-21T17:27:51.067Z,98221.50
2022-08-21T17:30:17.537Z,98224.03
2022-08-21T17:32:44.525Z,98220.97
2022-08-21T17:35:10.967Z,98220.81
2022-08-21T17:37:37.436Z,98220.50
2022-08-21T17:40:05.798Z,98222.28
2022-08-21T17:42:32.468Z,98225.53
2022-08-21T17:44:58.913Z,98216.66
2022-08-21T17:47:25.495Z,98219.03
2022-08-21T17:49:51.949Z,98219.97
2022-08-21T17:52:18.366Z,98216.88
2022-08-21T17:54:44.768Z,98215.63
2022-08-21T17:57:15.054Z,98218.91
2022-08-21T17:59:41.758Z,98219.31
2022-08-21T18:02:09.937Z,98225.16
2022-08-21T18:04:46.445Z,98229.31
2022-08-21T18:07:32.409Z,98220.41
2022-08-21T18:10:00.034Z,98227.69
2022-08-21T18:12:26.413Z,98234.66
2022-08-21T18:14:52.806Z,98226.22
2022-08-21T18:17:20.407Z,98226.22
2022-08-21T18:19:49.254Z,98230.34
2022-08-21T18:22:15.863Z,98235.19
2022-08-21T18:24:43.607Z,98234.41
2022-08-21T18:27:10.104Z,98233.66
2022-08-21T18:29:47.253Z,98232.00
2022-08-21T18:32:25.742Z,98232.03
2022-08-21T18:34:58.524Z,98244.16
2022-08-21T18:37:24.921Z,98242.13
2022-08-21T18:39:51.381Z,98245.38
2022-08-21T18:42:18.470Z,98237.38
2022-08-21T18:44:45.558Z,98236.91
2022-08-21T18:47:21.919Z,98242.16
2022-08-21T18:49:48.356Z,98245.81
2022-08-21T18:55:05.963Z,98241.03
2022-08-21T18:57:39.912Z,98240.63
2022-08-21T19:00:13.409Z,98249.84
2022-08-21T19:02:40.680Z,98249.06
2022-08-21T19:05:10.840Z,98250.69
2022-08-21T19:07:37.284Z,98251.88
2022-08-21T19:10:27.780Z,98257.50
2022-08-21T19:12:51.088Z,98255.09
2022-08-21T19:15:18.275Z,98260.72
2022-08-21T19:17:45.826Z,98248.28
2022-08-21T19:20:25.772Z,98261.09
2022-08-21T19:23:03.265Z,98263.50
2022-08-21T19:25:33.050Z,98257.91
2022-08-21T19:28:18.130Z,98262.31
2022-08-21T19:30:48.431Z,98261.47
2022-08-21T19:36:02.755Z,98259.06
2022-08-21T19:38:29.386Z,98266.25
2022-08-21T19:40:55.755Z,98267.06
2022-08-21T19:43:22.428Z,98266.25
2022-08-21T19:45:49.832Z,98259.44
2022-08-21T19:51:04.902Z,98277.50
2022-08-21T19:53:31.354Z,98262.69
2022-08-21T19:55:57.782Z,98269.06
2022-08-21T19:58:27.753Z,98267.06
2022-08-21T20:00:54.129Z,98264.25
2022-08-21T20:03:21.291Z,98274.28
2022-08-21T20:05:47.845Z,98270.63
2022-08-21T20:08:20.187Z,98272.25
2022-08-21T20:10:47.106Z,98269.81
2022-08-21T20:13:17.548Z,98276.97
2022-08-21T20:15:45.139Z,98264.19
2022-08-21T20:18:11.528Z,98273.84
2022-08-21T20:20:38.521Z,98269.00
2022-08-21T20:23:10.825Z,98263.38
2022-08-21T20:25:37.517Z,98272.19
2022-08-21T20:28:05.391Z,98266.59
2022-08-21T20:30:31.786Z,98267.41
2022-08-21T20:32:58.441Z,98264.56
2022-08-21T20:35:24.978Z,98264.91
2022-08-21T20:37:58.642Z,98273.78
2022-08-21T20:40:28.050Z,98266.13
2022-08-21T20:43:01.617Z,98275.41
2022-08-21T20:45:31.769Z,98272.59
2022-08-21T20:48:01.298Z,98272.19
2022-08-21T20:50:28.987Z,98276.19
2022-08-21T20:52:57.791Z,98273.28
2022-08-21T20:55:29.186Z,98280.91
2022-08-21T20:57:57.161Z,98282.50
2022-08-21T21:00:26.106Z,98273.69
2022-08-21T21:03:06.455Z,98278.47
2022-08-21T21:05:33.854Z,98279.69
2022-08-21T21:08:06.465Z,98280.06
2022-08-21T21:10:35.823Z,98278.44
2022-08-21T21:13:07.953Z,98279.28
2022-08-21T21:15:34.383Z,98284.06
2022-08-21T21:18:22.988Z,98280.91
2022-08-21T21:20:57.586Z,98275.66
2022-08-21T21:23:30.409Z,98275.66
2022-08-21T21:25:59.217Z,98275.66
2022-08-21T21:28:27.256Z,98274.38
2022-08-21T21:30:57.948Z,98285.16
2022-08-21T21:33:24.469Z,98280.78
2022-08-21T21:35:53.763Z,98280.03
2022-08-21T21:38:26.160Z,98279.22
2022-08-21T21:41:02.147Z,98293.25
2022-08-21T21:43:39.018Z,98290.81
2022-08-21T21:46:05.368Z,98290.41
2022-08-21T21:48:41.064Z,98281.91
2022-08-21T21:51:12.040Z,98288.72
2022-08-21T21:53:42.478Z,98281.00
2022-08-21T21:56:12.284Z,98279.78
2022-08-21T21:59:08.344Z,98285.88
2022-08-21T22:01:48.459Z,98281.09
2022-08-21T22:04:18.414Z,98276.72
2022-08-21T22:07:04.505Z,98277.53
2022-08-21T22:09:44.232Z,98283.13
2022-08-21T22:12:26.178Z,98271.44
2022-08-21T22:14:52.746Z,98283.38
2022-08-21T22:17:36.382Z,98283.78
2022-08-21T22:20:08.643Z,98286.22
2022-08-21T22:22:38.990Z,98284.91
2022-08-21T22:25:15.488Z,98279.66
2022-08-21T22:27:41.898Z,98269.66
2022-08-21T22:30:09.393Z,98283.28
2022-08-21T22:32:39.743Z,98281.69
2022-08-21T22:35:15.463Z,98278.91
2022-08-21T22:37:44.326Z,98276.88
2022-08-21T22:40:11.550Z,98280.09
2022-08-21T22:42:37.960Z,98282.06
2022-08-21T22:45:12.047Z,98281.91
2022-08-21T22:47:42.975Z,98277.69
2022-08-21T22:50:28.844Z,98275.16
2022-08-21T22:52:58.552Z,98278.81
2022-08-21T22:55:35.939Z,98280.78
2022-08-21T22:58:13.469Z,98280.09
2022-08-21T23:00:42.871Z,98282.81
2022-08-21T23:03:16.475Z,98273.19
2022-08-21T23:05:44.311Z,98273.66
2022-08-21T23:08:29.475Z,98275.16
2022-08-21T23:10:58.141Z,98270.38
2022-08-21T23:13:24.524Z,98275.19
2022-08-21T23:16:09.865Z,98278.78
2022-08-21T23:19:00.260Z,98269.53
2022-08-21T23:21:26.651Z,98280.28
2022-08-21T23:24:19.415Z,98276.31
2022-08-21T23:26:54.181Z,98269.09
2022-08-21T23:29:27.013Z,98273.94
2022-08-21T23:32:00.334Z,98277.88
2022-08-21T23:34:38.065Z,98277.75
2022-08-21T23:40:28.489Z,98270.00
2022-08-21T23:46:10.146Z,98274.88
2022-08-21T23:48:42.335Z,98272.97
2022-08-21T23:51:15.689Z,98273.38
2022-08-21T23:53:50.867Z,98268.09
2022-08-21T23:56:36.050Z,98271.69
2022-08-21T23:59:03.142Z,98268.78
